createdAt,value
2022-09-14T00:03:55.623Z,79.47
2022-09-14T00:08:55.496Z,78.86
2022-09-14T00:13:55.486Z,78.86
2022-09-14T00:18:55.380Z,79.67
2022-09-14T00:23:55.369Z,80.01
2022-09-14T00:28:55.373Z,80.85
2022-09-14T00:33:58.232Z,81.49
2022-09-14T00:38:55.092Z,81.26
2022-09-14T00:43:55.072Z,79.81
2022-09-14T00:48:55.000Z,81.19
2022-09-14T00:53:55.081Z,82.04
2022-09-14T00:58:54.871Z,81.15
2022-09-14T01:03:55.006Z,81.70
2022-09-14T01:08:54.715Z,82.44
2022-09-14T01:13:54.659Z,83.39
2022-09-14T01:18:54.570Z,82.10
2022-09-14T01:23:54.599Z,81.70
2022-09-14T01:28:54.474Z,81.70
2022-09-14T01:33:57.409Z,80.91
2022-09-14T01:38:54.375Z,80.95
2022-09-14T01:43:54.304Z,79.37
2022-09-14T01:48:54.176Z,80.21
2022-09-14T01:53:54.154Z,79.97
2022-09-14T01:58:54.049Z,79.67
2022-09-14T02:03:54.010Z,79.47
2022-09-14T02:08:53.942Z,79.37
2022-09-14T02:14:02.434Z,79.67
2022-09-14T02:19:01.271Z,79.57
2022-09-14T02:23:53.791Z,81.21
2022-09-14T02:28:53.704Z,84.25
2022-09-14T02:33:56.624Z,84.49
2022-09-14T02:38:53.635Z,85.10
2022-09-14T02:43:53.469Z,82.70
2022-09-14T02:48:53.390Z,83.00
2022-09-14T02:53:53.375Z,82.70
2022-09-14T02:58:53.244Z,82.06
2022-09-14T03:03:53.225Z,81.62
2022-09-14T03:08:53.125Z,81.32
2022-09-14T03:13:53.097Z,82.16
2022-09-14T03:18:52.995Z,82.66
2022-09-14T03:23:53.386Z,82.06
2022-09-14T03:28:52.964Z,81.32
2022-09-14T03:33:55.842Z,81.32
2022-09-14T03:38:52.751Z,82.36
2022-09-14T03:43:52.699Z,81.96
2022-09-14T03:48:52.589Z,82.66
2022-09-14T03:53:52.592Z,81.56
2022-09-14T03:58:52.539Z,81.15
2022-09-14T04:03:52.531Z,81.32
2022-09-14T04:08:52.329Z,81.76
2022-09-14T04:13:52.375Z,81.96
2022-09-14T04:18:52.462Z,83.54
2022-09-14T04:24:13.438Z,83.31
2022-09-14T04:28:53.783Z,83.54
2022-09-14T04:33:55.036Z,83.40
2022-09-14T04:38:52.338Z,84.15
2022-09-14T04:43:51.904Z,83.37
2022-09-14T04:48:51.834Z,83.20
2022-09-14T04:53:51.824Z,83.51
2022-09-14T04:58:52.133Z,83.51
2022-09-14T05:03:51.721Z,82.70
2022-09-14T05:08:51.534Z,82.04
2022-09-14T05:13:51.890Z,81.49
2022-09-14T05:18:51.586Z,81.99
2022-09-14T05:23:51.368Z,82.98
2022-09-14T05:28:51.309Z,83.25
2022-09-14T05:56:20.641Z,83.25
2022-09-14T06:01:14.446Z,82.50
2022-09-14T06:06:14.375Z,82.84
2022-09-14T06:11:14.275Z,84.69
2022-09-14T06:16:14.475Z,83.51
2022-09-14T06:21:14.285Z,83.20
2022-09-14T06:26:14.273Z,83.11
2022-09-14T06:31:25.750Z,81.62
2022-09-14T06:37:43.546Z,82.97
2022-09-14T06:42:43.399Z,84.57
2022-09-14T07:30:46.486Z,86.65
2022-09-14T07:35:46.381Z,87.65
2022-09-14T07:40:46.195Z,87.05
2022-09-14T07:45:46.203Z,86.71
2022-09-14T07:50:46.181Z,86.35
2022-09-14T07:55:45.907Z,86.15
2022-09-14T08:10:22.746Z,88.00
2022-09-14T08:15:27.688Z,87.76
2022-09-14T08:22:23.435Z,86.95
2022-09-14T08:27:23.461Z,87.15
2022-09-14T08:32:23.530Z,87.96
2022-09-14T08:37:23.485Z,88.16
2022-09-14T08:42:23.281Z,88.06
2022-09-14T08:47:23.230Z,87.45
2022-09-14T08:52:23.229Z,86.95
2022-09-14T08:57:23.025Z,87.65
2022-09-14T09:02:23.065Z,87.25
2022-09-14T09:07:22.800Z,87.25
2022-09-14T09:12:25.845Z,87.21
2022-09-14T09:17:22.676Z,87.76
2022-09-14T09:22:22.715Z,87.11
2022-09-14T09:27:22.586Z,87.15
2022-09-14T09:32:22.775Z,86.87
2022-09-14T09:37:22.505Z,87.11
2022-09-14T09:42:22.731Z,87.31
2022-09-14T09:47:22.521Z,87.35
2022-09-14T09:54:55.328Z,87.65
2022-09-14T10:01:23.652Z,87.01
2022-09-14T10:06:23.315Z,88.46
2022-09-14T10:11:23.545Z,88.26
2022-09-14T10:16:23.203Z,88.02
2022-09-14T10:21:30.781Z,87.62
2022-09-14T10:28:25.491Z,86.81
2022-09-14T10:34:54.315Z,86.10
2022-09-14T10:39:53.700Z,87.51
2022-09-14T10:44:53.790Z,86.83
2022-09-14T10:49:53.622Z,85.88
2022-09-14T10:54:54.448Z,85.94
2022-09-14T10:59:53.412Z,85.74
2022-09-14T11:05:01.063Z,85.50
2022-09-14T11:09:53.350Z,86.74
2022-09-14T11:14:53.453Z,86.34
2022-09-14T11:19:53.335Z,87.04
2022-09-14T11:24:56.300Z,86.94
2022-09-14T11:29:52.996Z,87.89
2022-09-14T11:34:53.133Z,86.85
2022-09-14T11:39:52.989Z,87.04
2022-09-14T11:44:53.599Z,87.01
2022-09-14T11:49:52.683Z,86.50
2022-09-14T11:54:52.758Z,86.28
2022-09-14T11:59:52.542Z,85.38
2022-09-14T12:04:52.551Z,85.41
2022-09-14T12:09:52.406Z,85.16
2022-09-14T12:14:52.555Z,86.16
2022-09-14T12:21:10.226Z,85.25
2022-09-14T12:26:17.155Z,85.27
2022-09-14T12:31:10.133Z,86.06
2022-09-14T12:36:10.165Z,85.30
2022-09-14T12:41:10.015Z,87.01
2022-09-14T12:46:19.445Z,85.82
2022-09-14T12:52:27.449Z,85.66
2022-09-14T12:57:35.232Z,85.75
2022-09-14T13:02:27.538Z,87.06
2022-09-14T13:07:27.167Z,86.32
2022-09-14T13:12:27.106Z,86.02
2022-09-14T13:17:35.876Z,85.33
2022-09-14T13:22:26.921Z,86.42
2022-09-14T13:27:26.948Z,86.56
2022-09-14T13:32:26.784Z,86.46
2022-09-14T13:37:26.770Z,86.54
2022-09-14T13:42:29.660Z,86.74
2022-09-14T13:47:26.602Z,87.39
2022-09-14T13:52:43.094Z,86.28
2022-09-14T13:57:27.587Z,86.18
2022-09-14T14:02:26.438Z,85.88
2022-09-14T14:07:26.367Z,86.83
2022-09-14T14:12:26.235Z,86.88
2022-09-14T14:17:26.226Z,86.43
2022-09-14T14:22:26.128Z,87.19
2022-09-14T14:27:33.906Z,85.84
2022-09-14T14:32:33.467Z,85.50
2022-09-14T14:37:26.225Z,86.74
2022-09-14T14:42:29.016Z,86.20
2022-09-14T14:47:25.778Z,87.08
2022-09-14T14:52:25.745Z,86.00
2022-09-14T14:57:25.659Z,85.90
2022-09-14T15:02:26.855Z,85.53
2022-09-14T15:07:25.536Z,86.20
2022-09-14T15:12:25.480Z,86.00
2022-09-14T15:17:25.360Z,85.80
2022-09-14T15:22:25.372Z,85.90
2022-09-14T15:27:25.250Z,86.10
2022-09-14T15:33:42.906Z,85.70
2022-09-14T15:38:42.646Z,87.69
2022-09-14T15:43:42.635Z,87.69
2022-09-14T15:48:42.770Z,87.89
2022-09-14T15:53:42.770Z,88.23
2022-09-14T15:58:45.995Z,88.94
2022-09-14T16:03:44.020Z,87.85
2022-09-14T16:08:42.278Z,87.59
2022-09-14T16:13:42.221Z,87.79
2022-09-14T16:18:42.110Z,88.43
2022-09-14T16:23:45.089Z,89.28
2022-09-14T16:28:42.058Z,90.44
2022-09-14T16:33:49.845Z,88.54
2022-09-14T16:38:49.341Z,86.24
2022-09-14T16:43:41.950Z,88.34
2022-09-14T16:48:41.731Z,87.89
2022-09-14T16:53:41.770Z,88.03
2022-09-14T16:58:41.632Z,88.23
2022-09-14T17:03:41.589Z,88.74
2022-09-14T17:08:43.776Z,88.34
2022-09-14T17:13:41.577Z,89.48
2022-09-14T17:18:41.481Z,89.57
2022-09-14T17:23:44.344Z,89.37
2022-09-14T17:28:41.243Z,89.81
2022-09-14T17:33:41.287Z,89.61
2022-09-14T17:38:41.065Z,91.06
2022-09-14T17:43:41.131Z,91.27
2022-09-14T17:48:40.962Z,89.51
2022-09-14T17:53:40.981Z,90.26
2022-09-14T17:58:41.143Z,89.45
2022-09-14T18:03:40.871Z,89.45
2022-09-14T18:08:40.651Z,90.41
2022-09-14T18:13:48.490Z,89.35
2022-09-14T18:18:47.518Z,89.29
2022-09-14T18:23:43.587Z,90.34
2022-09-14T18:28:40.443Z,90.99
2022-09-14T18:33:40.421Z,89.39
2022-09-14T18:38:40.266Z,88.75
2022-09-14T18:43:40.381Z,88.85
2022-09-14T18:49:57.721Z,88.59
2022-09-14T18:55:05.508Z,88.24
2022-09-14T18:59:57.625Z,88.99
2022-09-14T19:04:57.631Z,89.64
2022-09-14T19:09:57.447Z,89.13
2022-09-14T19:14:57.531Z,88.59
2022-09-14T19:19:57.389Z,88.68
2022-09-14T19:24:57.461Z,87.68
2022-09-14T19:29:57.141Z,88.18
2022-09-14T19:34:57.231Z,87.98
2022-09-14T19:40:00.221Z,88.18
2022-09-14T19:44:57.000Z,90.04
2022-09-14T19:49:56.915Z,88.83
2022-09-14T19:54:56.847Z,88.89
2022-09-14T20:00:03.856Z,86.36
2022-09-14T20:04:56.780Z,88.23
2022-09-14T20:09:56.646Z,87.78
2022-09-14T20:14:56.598Z,88.73
2022-09-14T20:19:56.637Z,88.39
2022-09-14T20:24:56.440Z,88.68
2022-09-14T20:29:56.406Z,90.19
2022-09-14T20:34:56.378Z,88.08
2022-09-14T20:39:59.318Z,90.04
2022-09-14T20:44:56.203Z,90.89
2022-09-14T20:50:03.960Z,88.79
2022-09-14T20:55:03.584Z,88.39
2022-09-14T20:59:56.010Z,89.13
2022-09-14T21:04:55.990Z,89.13
2022-09-14T21:09:55.860Z,88.48
2022-09-14T21:14:55.756Z,89.54
2022-09-14T21:19:55.842Z,88.97
2022-09-14T21:24:55.727Z,89.28
2022-09-14T21:29:56.251Z,89.72
2022-09-14T21:34:55.503Z,90.33
2022-09-14T21:39:58.594Z,89.58
2022-09-14T21:44:55.374Z,89.72
2022-09-14T21:49:55.337Z,88.43
2022-09-14T21:54:55.275Z,88.43
2022-09-14T21:59:55.201Z,88.32
2022-09-14T22:04:55.124Z,88.02
2022-09-14T22:09:55.111Z,88.67
2022-09-14T22:15:02.510Z,87.07
2022-09-14T22:19:55.002Z,87.76
2022-09-14T22:24:55.001Z,87.82
2022-09-14T22:29:54.798Z,87.90
2022-09-14T22:34:54.941Z,88.61
2022-09-14T22:39:57.877Z,88.21
2022-09-14T22:44:54.581Z,89.66
2022-09-14T22:49:54.546Z,88.10
2022-09-14T22:54:54.425Z,88.61
2022-09-14T22:59:54.387Z,88.10
2022-09-14T23:04:54.286Z,87.26
2022-09-14T23:09:54.276Z,88.47
2022-09-14T23:15:02.032Z,85.76
2022-09-14T23:19:54.110Z,88.92
2022-09-14T23:24:54.076Z,88.85
2022-09-14T23:29:54.028Z,89.76
2022-09-14T23:34:54.021Z,88.17
2022-09-14T23:39:58.301Z,87.32
2022-09-14T23:44:53.816Z,88.47
2022-09-14T23:49:53.767Z,87.21
2022-09-14T23:54:53.886Z,89.22
2022-09-14T23:59:53.598Z,88.06
